Time;durP1;ratioP1;P1;durP2;ratioP2;P2;SDS_P1;SDS_P2;PMS_P1;PMS_P2;Temp;Humidity;BMP_temperature;BMP_pressure;BME280_temperature;BME280_humidity;BME280_pressure;Samples;Min_cycle;Max_cycle;Signal;HPM_P1;HPM_P2
2023/10/14 00:02:01;;;;;;;5.97;3.80;;;22.90;43.80;;;;;;5026900;28;20214;-72
2023/10/14 00:04:28;;;;;;;6.17;3.77;;;23.00;43.70;;;;;;5026203;28;21022;-73
2023/10/14 00:06:57;;;;;;;8.40;3.63;;;22.90;44.20;;;;;;5021846;28;21017;-73
2023/10/14 00:09:24;;;;;;;9.80;4.30;;;22.90;44.50;;;;;;5027948;28;20536;-72
2023/10/14 00:11:55;;;;;;;7.23;3.80;;;22.90;44.70;;;;;;5023648;28;20435;-72
2023/10/14 00:14:23;;;;;;;9.10;4.23;;;22.80;45.40;;;;;;5029456;28;21112;-70
2023/10/14 00:16:49;;;;;;;7.93;3.73;;;22.80;45.50;;;;;;5024169;28;20453;-71
2023/10/14 00:19:17;;;;;;;7.40;4.00;;;22.80;45.80;;;;;;5031147;28;20433;-72
2023/10/14 00:21:45;;;;;;;9.17;4.10;;;22.70;45.80;;;;;;5027897;28;20477;-71
2023/10/14 00:24:15;;;;;;;13.10;4.37;;;22.60;47.90;;;;;;5031444;28;20514;-72
2023/10/14 00:26:41;;;;;;;8.90;4.60;;;22.60;48.50;;;;;;5028283;28;20580;-72
2023/10/14 00:31:41;;;;;;;9.80;4.20;;;22.60;48.60;;;;;;5028349;28;20193;-70
2023/10/14 00:34:07;;;;;;;7.60;4.60;;;22.70;49.50;;;;;;5026235;28;20915;-70
2023/10/14 00:36:34;;;;;;;12.27;5.23;;;22.60;52.80;;;;;;5028039;28;20496;-70
2023/10/14 00:39:12;;;;;;;9.30;5.30;;;22.60;54.40;;;;;;5029103;28;20177;-72
2023/10/14 00:41:43;;;;;;;11.40;5.90;;;22.60;55.40;;;;;;5021746;28;20465;-70
2023/10/14 00:44:10;;;;;;;7.57;4.97;;;22.60;56.40;;;;;;5029624;28;20426;-70
2023/10/14 00:46:42;;;;;;;11.83;5.70;;;22.60;56.80;;;;;;5026265;28;20492;-70
2023/10/14 00:49:11;;;;;;;6.97;4.70;;;22.60;56.90;;;;;;5032108;28;20409;-71
2023/10/14 00:51:43;;;;;;;14.83;5.90;;;22.60;56.60;;;;;;5029963;28;20493;-71
2023/10/14 00:54:11;;;;;;;11.73;5.50;;;22.60;56.60;;;;;;5023842;28;20942;-71
2023/10/14 00:56:40;;;;;;;8.43;4.83;;;22.60;56.60;;;;;;5027463;28;20504;-70
2023/10/14 00:59:08;;;;;;;11.43;5.50;;;22.60;56.80;;;;;;5028601;28;20435;-71
2023/10/14 01:01:55;;;;;;;13.63;5.40;;;22.50;58.20;;;;;;5029477;28;20929;-70
2023/10/14 01:04:31;;;;;;;12.73;6.00;;;22.40;59.20;;;;;;5027656;28;20417;-71
2023/10/14 01:07:12;;;;;;;11.90;5.80;;;22.20;61.20;;;;;;5025023;28;20495;-71
2023/10/14 01:14:53;;;;;;;16.83;6.80;;;21.60;65.10;;;;;;5029036;28;20418;-69
2023/10/14 01:17:29;;;;;;;14.23;6.67;;;21.60;65.40;;;;;;5024837;28;20445;-70
2023/10/14 01:20:03;;;;;;;10.33;6.97;;;21.50;65.60;;;;;;5024067;28;21049;-73
2023/10/14 01:22:30;;;;;;;15.93;6.40;;;21.50;66.00;;;;;;5029388;28;20483;-71
2023/10/14 01:24:55;;;;;;;17.53;6.03;;;21.40;66.10;;;;;;5026331;28;20419;-71
2023/10/14 01:27:22;;;;;;;9.87;6.33;;;21.30;66.60;;;;;;5026384;28;20502;-71
2023/10/14 01:29:51;;;;;;;13.63;6.40;;;21.30;66.70;;;;;;5024373;28;20192;-70
2023/10/14 01:32:42;;;;;;;17.53;6.20;;;21.20;66.90;;;;;;5030001;28;20446;-71
2023/10/14 01:35:25;;;;;;;15.57;5.90;;;21.10;67.00;;;;;;5026413;28;20422;-72
2023/10/14 01:37:52;;;;;;;8.57;6.37;;;21.00;67.00;;;;;;5024113;28;20791;-71
2023/10/14 01:40:28;;;;;;;7.40;6.13;;;20.90;67.20;;;;;;5026200;28;20843;-71
2023/10/14 01:43:05;;;;;;;15.30;7.07;;;20.90;67.20;;;;;;5030055;28;20511;-71
2023/10/14 01:45:35;;;;;;;13.47;6.80;;;20.90;67.20;;;;;;5027867;28;20509;-71
2023/10/14 01:48:38;;;;;;;15.17;7.00;;;20.80;67.20;;;;;;5030711;28;20511;-70
2023/10/14 01:50:57;;;;;;;14.30;7.77;;;20.80;67.20;;;;;;5027699;28;20469;-70
2023/10/14 01:53:25;;;;;;;13.13;6.43;;;20.80;67.20;;;;;;5029111;28;20796;-69
2023/10/14 01:55:53;;;;;;;14.50;7.17;;;20.70;67.50;;;;;;5021460;28;20474;-69
2023/10/14 01:58:23;;;;;;;12.63;6.37;;;20.60;67.50;;;;;;5024560;28;20434;-71
2023/10/14 02:00:58;;;;;;;12.20;6.77;;;20.50;67.50;;;;;;5029049;28;21001;-71
2023/10/14 02:03:24;;;;;;;13.07;6.97;;;20.50;67.50;;;;;;5022544;28;20432;-71
2023/10/14 02:05:53;;;;;;;12.03;6.90;;;20.50;67.60;;;;;;5024966;28;20469;-71
2023/10/14 02:08:23;;;;;;;14.60;7.43;;;20.50;67.50;;;;;;5028491;28;20429;-70
2023/10/14 02:10:50;;;;;;;13.33;6.20;;;20.40;67.60;;;;;;5028316;28;20802;-69
2023/10/14 02:13:17;;;;;;;9.30;5.77;;;20.40;67.60;;;;;;5027864;28;20433;-70
2023/10/14 02:15:46;;;;;;;12.87;6.47;;;20.40;67.60;;;;;;5025329;28;20831;-70
2023/10/14 02:18:13;;;;;;;14.70;7.50;;;20.40;67.60;;;;;;5027240;28;20468;-70
2023/10/14 02:20:50;;;;;;;19.23;7.60;;;20.40;67.60;;;;;;5025754;28;20519;-70
2023/10/14 02:23:16;;;;;;;14.90;6.40;;;20.40;67.60;;;;;;5028381;28;21025;-70
2023/10/14 02:25:41;;;;;;;15.50;7.23;;;20.40;67.60;;;;;;5024619;28;20458;-70
2023/10/14 02:28:07;;;;;;;13.23;7.47;;;20.40;67.60;;;;;;5023139;28;20414;-70
2023/10/14 02:30:32;;;;;;;12.40;7.63;;;20.40;67.60;;;;;;5025188;28;20179;-70
2023/10/14 02:32:58;;;;;;;14.13;6.87;;;20.50;67.60;;;;;;5025354;28;20202;-71
2023/10/14 02:35:24;;;;;;;14.43;7.87;;;20.50;67.50;;;;;;5022711;28;20614;-71
2023/10/14 02:37:51;;;;;;;13.13;7.20;;;20.50;67.50;;;;;;5023619;28;20175;-71
2023/10/14 02:40:23;;;;;;;11.80;6.73;;;20.50;67.50;;;;;;5028058;28;20196;-70
2023/10/14 02:42:50;;;;;;;10.83;6.73;;;20.50;67.50;;;;;;5029948;28;20429;-71
2023/10/14 02:45:15;;;;;;;12.90;7.67;;;20.60;67.50;;;;;;5025829;28;21395;-70
2023/10/14 02:47:41;;;;;;;13.17;7.20;;;20.60;67.50;;;;;;5030760;28;20421;-71
2023/10/14 02:50:14;;;;;;;12.17;6.90;;;20.60;67.50;;;;;;5032911;28;20188;-71
2023/10/14 02:52:39;;;;;;;14.27;7.33;;;20.60;67.30;;;;;;5024543;28;20282;-71
2023/10/14 02:55:25;;;;;;;9.90;6.07;;;20.60;67.30;;;;;;5023420;28;20521;-71
2023/10/14 02:57:51;;;;;;;13.60;8.13;;;20.60;67.30;;;;;;5027656;28;20175;-70
2023/10/14 03:00:38;;;;;;;11.43;6.60;;;20.70;67.30;;;;;;5031281;28;20775;-70
2023/10/14 03:03:03;;;;;;;14.83;7.30;;;20.70;67.30;;;;;;5026297;28;20566;-71
2023/10/14 03:05:37;;;;;;;10.80;6.80;;;20.70;67.30;;;;;;5024957;28;20461;-70
2023/10/14 03:08:09;;;;;;;11.40;6.47;;;20.70;67.20;;;;;;5023757;28;20224;-71
2023/10/14 03:10:39;;;;;;;11.70;7.30;;;20.70;67.20;;;;;;5030871;28;20433;-72
2023/10/14 03:13:11;;;;;;;13.10;6.70;;;20.80;67.20;;;;;;5030637;28;20536;-71
2023/10/14 03:15:38;;;;;;;13.00;6.73;;;20.80;67.20;;;;;;5023314;28;20450;-71
2023/10/14 03:18:05;;;;;;;13.53;7.63;;;20.80;67.20;;;;;;5030826;28;20454;-72
2023/10/14 03:23:10;;;;;;;11.20;7.23;;;20.80;67.20;;;;;;5023266;28;20532;-71
2023/10/14 03:25:36;;;;;;;14.30;6.77;;;20.80;67.20;;;;;;5025909;28;20545;-71
2023/10/14 03:28:44;;;;;;;12.77;6.77;;;20.80;67.20;;;;;;5030486;28;20521;-71
2023/10/14 03:30:55;;;;;;;21.80;7.40;;;20.80;67.20;;;;;;5028040;28;20279;-71
2023/10/14 03:33:22;;;;;;;15.27;6.57;;;20.80;67.20;;;;;;5029906;28;20441;-73
2023/10/14 03:36:09;;;;;;;13.67;7.30;;;20.80;67.20;;;;;;5028084;28;20501;-72
2023/10/14 03:41:19;;;;;;;10.77;6.60;;;20.80;67.20;;;;;;5031107;28;20560;-72
2023/10/14 03:43:59;;;;;;;8.97;5.93;;;20.80;67.20;;;;;;5024110;28;20423;-72
2023/10/14 03:46:34;;;;;;;12.30;7.13;;;20.80;67.20;;;;;;5027913;28;20983;-71
2023/10/14 03:49:22;;;;;;;12.67;7.20;;;20.80;67.20;;;;;;5028641;28;20943;-72
2023/10/14 03:51:54;;;;;;;15.27;7.47;;;20.80;67.20;;;;;;5020597;28;20788;-71
2023/10/14 03:54:23;;;;;;;13.63;7.40;;;20.90;67.20;;;;;;5026393;28;20884;-72
2023/10/14 03:56:50;;;;;;;10.70;6.43;;;20.90;67.20;;;;;;5026915;28;20469;-71
2023/10/14 03:59:24;;;;;;;13.47;7.47;;;20.90;67.20;;;;;;5023622;28;20425;-72
2023/10/14 04:02:12;;;;;;;13.10;7.27;;;20.90;67.20;;;;;;5031902;28;20561;-71
2023/10/14 04:04:42;;;;;;;11.13;6.53;;;20.90;67.20;;;;;;5032917;28;20423;-72
2023/10/14 04:12:08;;;;;;;14.20;7.27;;;20.80;67.50;;;;;;5032634;28;20446;-71
2023/10/14 04:14:37;;;;;;;10.53;6.70;;;20.80;67.50;;;;;;5030810;28;20427;-72
2023/10/14 04:17:18;;;;;;;13.27;7.10;;;20.80;67.50;;;;;;5030186;28;20456;-70
2023/10/14 04:19:47;;;;;;;15.50;7.80;;;20.80;67.50;;;;;;5030474;28;20497;-71
2023/10/14 04:22:32;;;;;;;14.43;7.50;;;20.80;67.50;;;;;;5031767;28;20472;-71
2023/10/14 04:25:18;;;;;;;16.20;7.83;;;20.80;67.50;;;;;;5028042;28;20951;-71
2023/10/14 04:27:55;;;;;;;12.90;7.87;;;20.70;67.50;;;;;;5030554;28;20475;-71
2023/10/14 04:35:32;;;;;;;15.87;7.67;;;20.80;67.50;;;;;;5028976;28;21164;-72
2023/10/14 04:38:09;;;;;;;15.33;6.77;;;20.80;67.50;;;;;;5032578;28;20484;-72
2023/10/14 04:40:37;;;;;;;14.30;7.50;;;20.80;67.50;;;;;;5031820;28;20474;-71
2023/10/14 04:45:55;;;;;;;16.63;6.83;;;20.40;70.40;;;;;;5026192;28;21032;-72
2023/10/14 04:48:35;;;;;;;13.10;6.80;;;20.00;73.90;;;;;;5030479;28;20422;-72
2023/10/14 04:51:15;;;;;;;14.17;7.47;;;19.50;76.10;;;;;;5031759;28;20427;-71
2023/10/14 04:53:46;;;;;;;16.13;6.90;;;19.10;76.70;;;;;;5031063;28;20937;-72
2023/10/14 04:56:12;;;;;;;12.37;7.20;;;19.00;77.60;;;;;;5028450;28;20469;-72
2023/10/14 04:58:40;;;;;;;12.47;7.00;;;18.90;78.10;;;;;;5029691;28;20497;-73
2023/10/14 05:01:09;;;;;;;13.70;7.00;;;18.90;78.70;;;;;;5033938;28;20209;-74
2023/10/14 05:03:35;;;;;;;14.37;8.30;;;18.90;78.90;;;;;;5032081;28;20952;-73
2023/10/14 05:06:14;;;;;;;11.83;7.10;;;18.90;79.00;;;;;;5026893;28;20540;-72
2023/10/14 05:08:44;;;;;;;10.50;6.73;;;18.90;79.20;;;;;;5032485;28;20459;-69
2023/10/14 05:11:15;;;;;;;13.80;7.63;;;19.00;79.30;;;;;;5033219;28;20422;-72
2023/10/14 05:13:44;;;;;;;16.73;7.20;;;19.10;78.90;;;;;;5029271;28;20417;-72
2023/10/14 05:16:20;;;;;;;14.87;7.90;;;19.10;78.90;;;;;;5028893;28;20540;-73
2023/10/14 05:18:59;;;;;;;14.97;6.60;;;19.20;78.90;;;;;;5031119;28;20430;-70
2023/10/14 05:21:36;;;;;;;11.50;6.50;;;19.20;78.00;;;;;;5030673;28;20542;-71
2023/10/14 05:24:09;;;;;;;14.63;6.20;;;19.20;77.80;;;;;;5027090;28;20920;-72
2023/10/14 05:26:45;;;;;;;10.70;6.57;;;19.20;77.80;;;;;;5028672;28;21067;-72
2023/10/14 05:29:18;;;;;;;13.17;7.00;;;19.20;78.10;;;;;;5032536;28;20449;-72
2023/10/14 05:31:47;;;;;;;14.20;6.97;;;19.20;78.40;;;;;;5029063;28;21132;-72
2023/10/14 05:34:24;;;;;;;13.10;6.47;;;19.20;78.70;;;;;;5029975;28;20430;-71
2023/10/14 05:36:55;;;;;;;11.90;6.07;;;19.20;78.70;;;;;;5028375;28;21020;-72
2023/10/14 05:39:21;;;;;;;16.43;7.70;;;19.20;78.70;;;;;;5026663;28;20780;-70
2023/10/14 05:41:58;;;;;;;15.83;6.73;;;19.20;78.90;;;;;;5032086;28;20464;-72
2023/10/14 05:44:29;;;;;;;12.13;6.93;;;19.20;79.00;;;;;;5031332;28;20423;-70
2023/10/14 05:46:55;;;;;;;14.23;6.80;;;19.20;78.70;;;;;;5028876;28;20903;-72
2023/10/14 05:49:24;;;;;;;12.43;6.80;;;19.20;78.70;;;;;;5035014;28;20467;-71
2023/10/14 05:51:53;;;;;;;13.37;7.10;;;19.10;78.60;;;;;;5026853;28;21137;-71
2023/10/14 05:54:22;;;;;;;11.57;6.97;;;19.10;78.60;;;;;;5030542;28;20967;-73
2023/10/14 05:56:51;;;;;;;14.43;7.43;;;19.10;78.60;;;;;;5028024;28;20460;-72
2023/10/14 05:59:17;;;;;;;12.57;6.73;;;19.10;78.40;;;;;;5030025;28;21173;-72
2023/10/14 06:01:46;;;;;;;12.63;7.13;;;19.10;78.00;;;;;;5028894;28;20563;-70
2023/10/14 06:04:13;;;;;;;13.47;7.20;;;19.10;78.00;;;;;;5030999;28;20190;-72
2023/10/14 06:06:40;;;;;;;14.27;7.60;;;19.20;77.30;;;;;;5028496;28;20460;-70
2023/10/14 06:09:07;;;;;;;15.20;6.50;;;19.10;76.70;;;;;;5031348;28;20428;-71
2023/10/14 06:11:33;;;;;;;12.17;6.77;;;19.10;76.50;;;;;;5030540;28;20489;-71
2023/10/14 06:13:58;;;;;;;9.50;6.00;;;19.10;76.20;;;;;;5029761;28;21018;-71
2023/10/14 06:16:25;;;;;;;14.93;6.83;;;19.00;76.20;;;;;;5027157;28;20269;-70
2023/10/14 06:18:51;;;;;;;13.23;6.00;;;18.90;75.90;;;;;;5031073;28;20184;-70
2023/10/14 06:21:16;;;;;;;8.73;5.50;;;18.90;75.90;;;;;;5025379;28;20464;-70
2023/10/14 06:23:48;;;;;;;10.17;6.20;;;18.90;75.40;;;;;;5030187;28;20177;-71
2023/10/14 06:26:17;;;;;;;8.33;5.70;;;18.90;75.40;;;;;;5021181;28;20300;-71
2023/10/14 06:28:48;;;;;;;11.13;6.60;;;19.00;75.50;;;;;;5030652;28;20412;-71
2023/10/14 06:31:14;;;;;;;9.90;6.53;;;19.00;75.50;;;;;;5032059;28;20499;-71
2023/10/14 06:33:43;;;;;;;10.33;6.40;;;19.00;75.80;;;;;;5030356;28;20511;-71
2023/10/14 06:36:13;;;;;;;17.30;6.10;;;19.00;74.50;;;;;;5027519;28;20205;-71
2023/10/14 06:38:44;;;;;;;11.83;6.30;;;19.10;74.30;;;;;;5031091;28;20419;-72
2023/10/14 06:41:11;;;;;;;12.60;6.10;;;19.10;73.50;;;;;;5030925;28;20502;-72
2023/10/14 06:43:38;;;;;;;11.80;6.50;;;19.20;73.70;;;;;;5030425;28;20437;-73
2023/10/14 06:46:04;;;;;;;12.43;4.90;;;19.20;73.20;;;;;;5026944;28;20441;-70
2023/10/14 06:48:32;;;;;;;10.13;5.93;;;19.30;71.60;;;;;;5030376;28;20511;-71
2023/10/14 06:50:59;;;;;;;9.70;5.63;;;19.40;71.70;;;;;;5028875;28;20420;-72
2023/10/14 06:53:28;;;;;;;9.50;5.80;;;19.30;71.60;;;;;;5028431;28;20446;-71
2023/10/14 06:55:54;;;;;;;13.80;6.30;;;19.40;71.70;;;;;;5026906;28;20506;-70
2023/10/14 06:58:21;;;;;;;13.20;5.30;;;19.40;71.70;;;;;;5027105;28;20756;-72
2023/10/14 07:00:51;;;;;;;8.37;5.03;;;19.40;70.80;;;;;;5028957;28;20465;-71
2023/10/14 07:03:17;;;;;;;7.73;4.80;;;19.40;70.50;;;;;;5029082;28;20413;-70
2023/10/14 07:05:48;;;;;;;11.67;5.63;;;19.40;69.80;;;;;;5027181;28;20456;-70
2023/10/14 07:08:15;;;;;;;8.20;4.60;;;19.40;70.10;;;;;;5025074;28;20407;-70
2023/10/14 07:10:41;;;;;;;11.33;5.10;;;19.50;69.90;;;;;;5030552;28;20413;-72
2023/10/14 07:13:08;;;;;;;10.47;4.90;;;19.50;69.20;;;;;;5028348;28;20480;-71
2023/10/14 07:15:38;;;;;;;14.40;5.40;;;19.60;68.90;;;;;;5029079;28;20471;-73
2023/10/14 07:18:03;;;;;;;8.07;5.10;;;19.70;68.60;;;;;;5032746;28;20417;-72
2023/10/14 07:20:32;;;;;;;10.93;4.90;;;19.70;68.90;;;;;;5039336;28;20435;-72
2023/10/14 07:22:58;;;;;;;9.73;4.80;;;19.80;68.30;;;;;;5028826;28;20857;-71
2023/10/14 07:25:42;;;;;;;8.17;3.90;;;19.80;67.90;;;;;;5028043;28;21266;-71
2023/10/14 07:28:13;;;;;;;8.63;3.97;;;20.00;67.20;;;;;;5027567;28;20947;-71
2023/10/14 07:30:46;;;;;;;7.90;4.00;;;20.00;66.70;;;;;;5029989;28;20856;-71
2023/10/14 07:33:16;;;;;;;8.40;3.73;;;20.00;67.00;;;;;;5029267;28;20451;-71
2023/10/14 07:35:42;;;;;;;10.70;4.40;;;20.00;66.60;;;;;;5026390;28;21174;-72
2023/10/14 07:38:08;;;;;;;7.87;4.30;;;20.00;66.60;;;;;;5030206;28;20412;-71
2023/10/14 07:40:34;;;;;;;6.73;3.80;;;20.00;66.30;;;;;;5032114;28;20579;-71
2023/10/14 07:43:07;;;;;;;7.20;3.70;;;20.00;66.30;;;;;;5030421;28;21090;-72
2023/10/14 07:45:43;;;;;;;7.23;3.70;;;19.90;66.10;;;;;;5029178;28;20461;-71
2023/10/14 07:48:10;;;;;;;8.10;4.00;;;19.90;66.30;;;;;;5029257;28;20424;-72
2023/10/14 07:50:37;;;;;;;6.47;3.73;;;20.00;66.10;;;;;;5029819;28;20482;-72
2023/10/14 07:53:36;;;;;;;7.57;3.50;;;20.20;65.60;;;;;;5024748;28;20466;-71
2023/10/14 07:55:56;;;;;;;8.63;4.23;;;20.30;65.30;;;;;;5021298;28;20495;-71
2023/10/14 07:58:23;;;;;;;9.27;3.83;;;20.20;65.10;;;;;;5029670;28;20417;-71
2023/10/14 08:00:50;;;;;;;7.50;3.47;;;20.30;64.80;;;;;;5030621;28;20468;-71
2023/10/14 08:03:22;;;;;;;7.87;3.80;;;20.30;64.80;;;;;;5028849;28;20420;-71
2023/10/14 08:05:52;;;;;;;7.77;3.80;;;20.30;65.00;;;;;;5026350;28;20479;-72
2023/10/14 08:08:19;;;;;;;4.87;3.37;;;20.30;64.70;;;;;;5028428;28;21009;-72
2023/10/14 08:10:48;;;;;;;7.57;3.80;;;20.40;64.70;;;;;;5029867;28;20436;-71
2023/10/14 08:13:18;;;;;;;7.67;3.77;;;20.40;64.70;;;;;;5028415;28;20426;-71
2023/10/14 08:15:43;;;;;;;8.73;3.77;;;20.40;65.00;;;;;;5026774;28;20987;-71
2023/10/14 08:18:11;;;;;;;6.57;3.97;;;20.50;64.70;;;;;;5029767;28;20448;-71
2023/10/14 08:20:37;;;;;;;7.37;4.23;;;20.40;64.70;;;;;;5027781;28;20599;-70
2023/10/14 08:23:09;;;;;;;9.03;4.17;;;20.20;65.30;;;;;;5029036;28;20434;-70
2023/10/14 08:25:41;;;;;;;8.10;3.67;;;20.20;65.60;;;;;;5026432;28;20496;-70
2023/10/14 08:28:07;;;;;;;5.07;3.43;;;20.10;66.00;;;;;;5027468;28;20842;-70
2023/10/14 08:30:45;;;;;;;6.43;3.90;;;20.10;66.00;;;;;;5026617;28;20524;-71
2023/10/14 08:33:13;;;;;;;7.93;3.20;;;20.00;66.00;;;;;;5026894;28;20822;-69
2023/10/14 08:35:42;;;;;;;5.00;2.93;;;19.90;65.80;;;;;;5027024;28;21047;-70
2023/10/14 08:38:14;;;;;;;5.70;2.77;;;19.90;66.00;;;;;;5031177;28;20425;-70
2023/10/14 08:40:41;;;;;;;4.00;2.27;;;20.00;65.60;;;;;;5029641;28;20555;-69
2023/10/14 08:43:10;;;;;;;6.43;3.40;;;20.00;65.60;;;;;;5030270;28;20540;-69
2023/10/14 08:45:39;;;;;;;6.17;2.80;;;20.10;65.60;;;;;;5027479;28;20459;-71
2023/10/14 08:48:08;;;;;;;5.57;2.40;;;20.10;65.60;;;;;;5035090;28;20536;-73
2023/10/14 08:50:35;;;;;;;6.43;2.97;;;20.10;65.60;;;;;;5025508;28;20432;-71
2023/10/14 08:53:06;;;;;;;6.20;3.43;;;20.00;66.00;;;;;;5030540;28;21052;-70
2023/10/14 08:55:34;;;;;;;6.13;2.90;;;19.90;66.30;;;;;;5035846;28;20461;-73
2023/10/14 08:58:02;;;;;;;3.87;2.20;;;20.00;66.00;;;;;;5030678;28;20528;-72
2023/10/14 09:00:29;;;;;;;5.10;2.40;;;20.20;65.60;;;;;;5026911;28;20435;-72
2023/10/14 09:02:56;;;;;;;6.53;3.10;;;20.40;65.10;;;;;;5025002;28;20417;-69
2023/10/14 09:05:22;;;;;;;3.83;2.00;;;20.60;64.70;;;;;;5026799;28;20463;-71
2023/10/14 09:07:49;;;;;;;5.20;2.27;;;20.60;64.40;;;;;;5032361;28;20436;-72
2023/10/14 09:10:18;;;;;;;5.33;2.63;;;20.80;64.20;;;;;;5026613;28;20406;-72
2023/10/14 09:13:03;;;;;;;7.87;3.53;;;20.90;63.80;;;;;;5025973;28;20434;-70
2023/10/14 09:15:32;;;;;;;8.97;2.80;;;20.90;63.90;;;;;;5027674;28;20466;-69
2023/10/14 09:17:58;;;;;;;1.97;1.27;;;20.60;63.80;;;;;;5031997;28;20429;-74
2023/10/14 09:20:32;;;;;;;5.90;1.40;;;19.40;66.90;;;;;;5028796;28;20428;-71
2023/10/14 09:23:30;;;;;;;2.23;1.20;;;18.30;71.30;;;;;;5030165;28;20476;-73
2023/10/14 09:25:59;;;;;;;2.60;1.40;;;18.00;73.20;;;;;;4961215;28;21231;-73
2023/10/14 09:28:33;;;;;;;2.73;1.60;;;17.50;75.40;;;;;;4966834;28;20645;-72
2023/10/14 09:30:59;;;;;;;2.33;1.40;;;17.20;77.60;;;;;;4968911;28;20436;-71
2023/10/14 09:33:29;;;;;;;4.40;1.90;;;17.00;79.50;;;;;;4968077;28;20486;-73
2023/10/14 09:35:58;;;;;;;4.37;1.80;;;16.90;80.50;;;;;;4964365;28;20490;-74
2023/10/14 09:38:25;;;;;;;2.13;1.50;;;16.90;81.40;;;;;;4964265;28;20450;-72
2023/10/14 09:41:04;;;;;;;3.80;2.40;;;17.00;81.80;;;;;;4963115;28;20662;-73
2023/10/14 09:43:33;;;;;;;3.20;1.80;;;17.00;81.40;;;;;;4967323;28;20423;-72
2023/10/14 09:46:08;;;;;;;2.60;1.87;;;16.70;81.50;;;;;;4965879;28;20462;-73
2023/10/14 09:48:35;;;;;;;9.67;4.73;;;16.50;82.20;;;;;;4959224;28;20527;-72
2023/10/14 09:51:02;;;;;;;16.20;7.73;;;16.50;82.80;;;;;;4966772;28;20432;-73
2023/10/14 09:53:32;;;;;;;6.27;3.73;;;16.50;83.00;;;;;;4964624;28;20536;-73
2023/10/14 09:56:04;;;;;;;4.43;2.07;;;16.60;83.10;;;;;;4964164;28;20461;-74
2023/10/14 09:58:34;;;;;;;4.60;2.20;;;16.70;82.80;;;;;;4955300;28;20437;-72
2023/10/14 10:01:01;;;;;;;5.77;1.80;;;16.80;81.70;;;;;;4982825;28;21003;-71
2023/10/14 10:03:29;;;;;;;4.07;1.50;;;16.90;81.10;;;;;;5031070;28;20442;-72
2023/10/14 10:06:24;;;;;;;3.50;1.40;;;17.10;80.80;;;;;;5028813;28;20461;-70
2023/10/14 10:09:20;;;;;;;1.60;1.13;;;17.40;80.60;;;;;;5027706;28;20823;-72
2023/10/14 10:11:50;;;;;;;1.67;1.20;;;17.50;78.70;;;;;;5031213;28;20903;-70
2023/10/14 10:14:19;;;;;;;1.50;1.10;;;17.60;77.80;;;;;;5024758;28;20429;-71
2023/10/14 10:16:48;;;;;;;1.60;1.10;;;17.40;76.50;;;;;;5024411;28;20452;-72
2023/10/14 10:19:14;;;;;;;1.67;1.10;;;17.30;76.80;;;;;;5026693;28;20424;-73
2023/10/14 10:22:13;;;;;;;2.80;1.37;;;17.30;75.90;;;;;;5031256;28;20821;-73
2023/10/14 10:24:41;;;;;;;3.20;1.50;;;17.40;75.80;;;;;;5029970;28;20956;-73
2023/10/14 10:27:10;;;;;;;2.10;1.20;;;17.70;75.80;;;;;;5027153;28;20457;-71
2023/10/14 10:29:51;;;;;;;2.00;1.37;;;17.90;75.40;;;;;;5029960;28;20436;-72
2023/10/14 10:32:21;;;;;;;2.23;0.97;;;18.10;74.90;;;;;;5031278;28;20496;-71
2023/10/14 10:35:05;;;;;;;1.53;1.00;;;18.30;73.30;;;;;;5030432;28;20464;-71
2023/10/14 10:37:49;;;;;;;1.73;1.17;;;18.20;71.40;;;;;;5032237;28;20462;-73
2023/10/14 10:40:22;;;;;;;3.60;1.30;;;18.10;72.40;;;;;;5029264;28;20436;-74
2023/10/14 10:42:53;;;;;;;2.40;1.50;;;18.00;72.10;;;;;;5028923;28;20443;-73
2023/10/14 10:45:22;;;;;;;3.33;1.10;;;17.90;72.40;;;;;;5028011;28;20530;-69
2023/10/14 10:47:56;;;;;;;2.30;1.40;;;17.80;73.70;;;;;;5031449;28;20896;-72
2023/10/14 10:50:37;;;;;;;2.63;1.30;;;17.50;75.10;;;;;;5026023;28;20545;-70
2023/10/14 10:53:09;;;;;;;6.03;3.03;;;17.40;75.20;;;;;;5023478;28;20505;-75
2023/10/14 10:55:38;;;;;;;3.63;1.83;;;17.40;75.90;;;;;;5025100;28;20476;-71
2023/10/14 10:58:06;;;;;;;3.80;2.60;;;17.40;75.90;;;;;;5025223;28;20507;-71
2023/10/14 11:00:32;;;;;;;4.30;2.00;;;17.30;75.70;;;;;;5028272;28;20428;-72
2023/10/14 11:03:00;;;;;;;2.70;2.13;;;17.30;76.10;;;;;;5024232;28;20468;-69
2023/10/14 11:05:26;;;;;;;2.53;1.50;;;17.40;76.10;;;;;;5023701;28;20452;-73
2023/10/14 11:07:53;;;;;;;5.40;1.70;;;17.40;75.90;;;;;;5024652;28;20416;-71
2023/10/14 11:10:27;;;;;;;2.70;1.60;;;17.40;76.80;;;;;;5028872;28;20641;-71
2023/10/14 11:12:55;;;;;;;2.90;1.87;;;17.30;77.40;;;;;;5023849;28;20436;-70
2023/10/14 11:15:22;;;;;;;1.80;1.33;;;17.20;77.80;;;;;;5020307;28;20459;-70
2023/10/14 11:17:59;;;;;;;2.07;1.53;;;17.00;78.10;;;;;;5027336;28;20558;-71
2023/10/14 11:20:32;;;;;;;2.10;1.50;;;16.80;79.30;;;;;;5023526;28;20419;-72
2023/10/14 11:22:59;;;;;;;5.60;2.10;;;16.60;79.70;;;;;;5027861;28;20991;-71
2023/10/14 11:25:30;;;;;;;6.00;2.07;;;16.40;80.80;;;;;;5019879;28;20460;-70
2023/10/14 11:27:56;;;;;;;4.53;2.93;;;16.30;81.20;;;;;;5025954;28;21208;-72
2023/10/14 11:30:26;;;;;;;6.20;2.20;;;16.30;81.70;;;;;;5028626;28;20459;-71
2023/10/14 11:32:52;;;;;;;6.33;4.10;;;16.30;82.40;;;;;;5026906;28;20450;-72
2023/10/14 11:35:21;;;;;;;2.10;1.60;;;16.20;81.80;;;;;;5023126;28;20456;-72
2023/10/14 11:38:00;;;;;;;2.43;1.20;;;16.20;82.10;;;;;;5028142;28;21267;-70
2023/10/14 11:40:36;;;;;;;1.77;1.13;;;16.20;82.40;;;;;;5026111;28;20420;-76
2023/10/14 11:43:04;;;;;;;2.53;1.47;;;15.90;81.90;;;;;;5022922;28;20467;-74
2023/10/14 11:45:32;;;;;;;3.20;2.00;;;15.90;82.70;;;;;;5024942;28;20470;-73
2023/10/14 11:48:01;;;;;;;1.70;1.30;;;16.00;83.00;;;;;;5028001;28;20434;-72
2023/10/14 11:50:30;;;;;;;1.90;1.20;;;15.90;82.70;;;;;;5028786;28;20435;-73
2023/10/14 11:52:57;;;;;;;3.00;1.70;;;15.90;81.80;;;;;;5026232;28;21231;-73
2023/10/14 11:55:25;;;;;;;2.90;1.43;;;16.00;82.10;;;;;;5026046;28;20454;-74
2023/10/14 11:57:53;;;;;;;3.93;1.40;;;15.90;82.70;;;;;;5027675;28;20792;-69
2023/10/14 12:00:20;;;;;;;2.00;1.53;;;15.70;82.20;;;;;;5025736;28;20432;-71
2023/10/14 12:02:47;;;;;;;1.93;1.20;;;15.60;83.10;;;;;;5026198;28;20555;-78
2023/10/14 12:05:16;;;;;;;2.13;1.50;;;15.50;83.40;;;;;;5023777;28;20448;-70
2023/10/14 12:07:47;;;;;;;2.80;1.40;;;15.50;83.60;;;;;;5023497;28;20486;-73
2023/10/14 12:10:12;;;;;;;2.10;1.60;;;15.50;83.70;;;;;;5030489;28;20471;-71
2023/10/14 12:12:38;;;;;;;4.27;2.10;;;15.50;83.60;;;;;;5032992;28;20425;-73
2023/10/14 12:15:06;;;;;;;3.97;1.87;;;15.50;83.60;;;;;;5030103;28;20254;-71
2023/10/14 12:17:35;;;;;;;3.30;1.40;;;15.50;83.80;;;;;;5031210;28;20183;-70
2023/10/14 12:20:06;;;;;;;3.13;1.97;;;15.40;84.00;;;;;;5029903;28;20418;-71
2023/10/14 12:22:32;;;;;;;2.80;1.10;;;15.40;84.30;;;;;;5030932;28;20572;-72
2023/10/14 12:24:59;;;;;;;1.70;1.10;;;15.40;83.70;;;;;;5025045;28;20480;-74
2023/10/14 12:27:28;;;;;;;2.80;1.20;;;15.30;83.60;;;;;;5024786;28;20520;-73
2023/10/14 12:29:54;;;;;;;2.90;1.60;;;15.30;84.10;;;;;;5028663;28;20426;-71
2023/10/14 12:32:20;;;;;;;3.33;1.37;;;15.30;84.10;;;;;;5027381;28;20499;-70
2023/10/14 12:34:48;;;;;;;5.50;2.10;;;15.30;84.30;;;;;;5032372;28;20536;-73
2023/10/14 12:37:21;;;;;;;2.83;1.80;;;15.40;84.40;;;;;;5032094;28;20494;-75
2023/10/14 12:40:11;;;;;;;3.90;2.13;;;15.40;84.60;;;;;;5033638;28;20415;-70
2023/10/14 12:42:47;;;;;;;3.33;1.30;;;15.50;84.40;;;;;;5030759;28;20493;-70
2023/10/14 12:45:14;;;;;;;2.97;1.30;;;15.50;84.70;;;;;;5033356;28;20444;-71
2023/10/14 12:47:47;;;;;;;1.63;1.00;;;15.40;84.40;;;;;;5035415;28;20419;-71
2023/10/14 12:50:14;;;;;;;2.20;1.47;;;15.30;84.90;;;;;;5029850;28;20431;-72
2023/10/14 12:52:41;;;;;;;1.93;1.40;;;15.30;85.30;;;;;;5028263;28;20482;-71
2023/10/14 12:55:17;;;;;;;1.53;1.20;;;15.20;84.30;;;;;;5028551;28;20415;-71
2023/10/14 12:57:46;;;;;;;3.13;1.47;;;15.10;83.80;;;;;;5032214;28;20434;-71
2023/10/14 13:00:18;;;;;;;1.30;1.00;;;15.00;83.60;;;;;;5030556;28;20447;-71
2023/10/14 13:02:45;;;;;;;2.70;1.20;;;15.10;83.70;;;;;;5033053;28;20492;-70
2023/10/14 13:05:14;;;;;;;3.67;1.23;;;15.10;83.40;;;;;;5031912;28;21081;-72
2023/10/14 13:07:40;;;;;;;4.50;1.73;;;15.10;83.30;;;;;;5034988;28;20522;-70
2023/10/14 13:10:08;;;;;;;1.90;1.07;;;15.10;83.40;;;;;;5039312;28;20475;-71
2023/10/14 13:12:34;;;;;;;2.37;1.10;;;15.10;82.70;;;;;;5032460;28;20991;-70
2023/10/14 13:15:04;;;;;;;3.13;1.50;;;15.00;83.10;;;;;;5031268;28;20466;-70
2023/10/14 13:17:35;;;;;;;1.10;0.80;;;15.00;83.60;;;;;;5033213;28;20196;-73
2023/10/14 13:20:01;;;;;;;2.50;1.13;;;15.10;83.40;;;;;;5030849;28;20425;-71
2023/10/14 13:22:29;;;;;;;1.70;1.23;;;15.00;83.70;;;;;;5026162;28;20989;-72
2023/10/14 13:24:54;;;;;;;2.23;1.43;;;15.00;83.10;;;;;;5029673;28;20781;-74
2023/10/14 13:27:21;;;;;;;3.93;1.20;;;14.90;83.60;;;;;;5027412;28;20450;-73